Time;durP1;ratioP1;P1;durP2;ratioP2;P2;SDS_P1;SDS_P2;PMS_P1;PMS_P2;Temp;Humidity;BMP_temperature;BMP_pressure;BME280_temperature;BME280_humidity;BME280_pressure;Samples;Min_cycle;Max_cycle;Signal;HPM_P1;HPM_P2
2022/12/16 00:01:34;;;;;;;2.88;0.80;;;20.00;66.80;;;;;;5074904;28;20374;-86
2022/12/16 00:04:01;;;;;;;9.43;1.20;;;20.50;64.40;;;;;;5074734;28;20371;-85
2022/12/16 00:06:33;;;;;;;3.97;0.90;;;20.80;63.60;;;;;;5074709;28;20884;-85
2022/12/16 00:09:01;;;;;;;5.75;0.90;;;21.20;62.30;;;;;;5074694;28;20457;-84
2022/12/16 00:11:30;;;;;;;8.88;1.23;;;21.70;61.00;;;;;;5075065;28;20722;-86
2022/12/16 00:13:58;;;;;;;2.33;0.90;;;21.70;60.60;;;;;;5074708;28;20455;-85
2022/12/16 00:16:25;;;;;;;5.60;0.82;;;22.00;60.20;;;;;;5074574;28;20566;-84
2022/12/16 00:18:52;;;;;;;2.05;0.70;;;22.00;59.50;;;;;;5074536;28;20440;-84
2022/12/16 00:21:20;;;;;;;2.97;0.70;;;21.90;59.50;;;;;;5074532;28;20362;-87
2022/12/16 00:23:48;;;;;;;4.57;0.88;;;21.40;60.20;;;;;;5074594;28;20861;-87
2022/12/16 00:26:15;;;;;;;2.07;0.60;;;21.30;61.40;;;;;;5074213;28;20881;-83
2022/12/16 00:28:42;;;;;;;2.03;0.63;;;21.60;61.70;;;;;;5073881;28;20386;-86
2022/12/16 00:31:09;;;;;;;2.83;0.77;;;21.60;61.10;;;;;;5074156;28;20711;-84
2022/12/16 00:33:36;;;;;;;4.93;0.70;;;21.50;60.30;;;;;;5073804;28;20402;-83
2022/12/16 00:36:04;;;;;;;3.45;0.88;;;21.40;61.50;;;;;;5073912;28;20370;-85
2022/12/16 00:38:31;;;;;;;2.42;0.65;;;22.00;59.90;;;;;;5073784;28;20378;-82
2022/12/16 00:40:58;;;;;;;2.08;0.65;;;22.10;59.00;;;;;;5073717;28;20519;-83
2022/12/16 00:43:25;;;;;;;2.53;0.70;;;21.70;59.70;;;;;;5072453;28;20795;-85
2022/12/16 00:45:52;;;;;;;1.85;0.63;;;21.80;59.40;;;;;;5073326;28;20381;-83
2022/12/16 00:48:22;;;;;;;2.45;0.60;;;22.20;59.30;;;;;;5073325;28;20382;-87
2022/12/16 00:50:54;;;;;;;3.22;0.90;;;22.60;58.60;;;;;;5074016;28;20454;-84
2022/12/16 00:53:22;;;;;;;6.68;0.90;;;23.00;57.40;;;;;;5073286;28;20481;-82
2022/12/16 00:55:50;;;;;;;1.83;0.63;;;22.80;57.90;;;;;;5073428;28;20373;-82
2022/12/16 00:58:17;;;;;;;3.47;0.60;;;22.40;57.20;;;;;;5073404;28;20409;-83
2022/12/16 01:00:44;;;;;;;1.75;0.60;;;22.00;59.80;;;;;;5072083;28;20409;-86
2022/12/16 01:03:11;;;;;;;2.97;0.80;;;22.00;60.20;;;;;;5072140;28;20378;-83
2022/12/16 01:05:38;;;;;;;3.33;0.80;;;21.90;60.20;;;;;;5073591;28;20377;-83
2022/12/16 01:08:06;;;;;;;3.80;0.75;;;22.10;59.00;;;;;;5073385;28;20943;-86
2022/12/16 01:10:33;;;;;;;1.75;0.70;;;22.50;58.40;;;;;;5071610;28;20439;-82
2022/12/16 01:13:00;;;;;;;2.40;0.60;;;22.70;57.40;;;;;;5073660;28;20397;-82
2022/12/16 01:15:27;;;;;;;1.25;0.60;;;22.40;57.90;;;;;;5074407;28;20408;-82
2022/12/16 01:17:54;;;;;;;2.90;0.80;;;22.20;58.50;;;;;;5073552;28;20366;-82
2022/12/16 01:20:21;;;;;;;2.28;0.80;;;22.40;58.50;;;;;;5073911;28;20920;-83
2022/12/16 01:22:48;;;;;;;1.20;0.70;;;22.60;58.60;;;;;;5073332;28;20846;-83
2022/12/16 01:25:16;;;;;;;2.17;0.67;;;23.00;56.20;;;;;;5073082;28;20382;-84
2022/12/16 01:27:43;;;;;;;1.58;0.70;;;22.80;55.80;;;;;;5075107;28;20381;-87
2022/12/16 01:30:11;;;;;;;3.28;0.70;;;22.60;57.70;;;;;;5073536;28;20771;-89
2022/12/16 01:32:38;;;;;;;2.10;0.60;;;23.00;57.60;;;;;;5073446;28;20753;-88
2022/12/16 01:35:06;;;;;;;4.07;1.00;;;23.40;56.10;;;;;;5074357;28;20370;-85
2022/12/16 01:37:36;;;;;;;2.85;0.80;;;24.00;55.40;;;;;;5072200;28;20449;-87
2022/12/16 01:40:03;;;;;;;6.85;0.88;;;24.30;56.00;;;;;;5073022;28;20465;-88
2022/12/16 01:42:32;;;;;;;1.40;0.65;;;25.10;54.60;;;;;;5073280;28;20378;-87
2022/12/16 01:45:28;;;;;;;2.97;0.88;;;25.00;54.40;;;;;;5073079;28;20366;-89
2022/12/16 01:47:58;;;;;;;2.03;0.60;;;25.50;52.90;;;;;;5073356;28;20362;-89
2022/12/16 01:50:27;;;;;;;1.57;0.70;;;26.20;50.80;;;;;;5073678;28;20367;-89
2022/12/16 01:52:59;;;;;;;3.15;0.65;;;26.30;51.70;;;;;;5072556;28;20385;-89
2022/12/16 01:55:37;;;;;;;2.88;0.80;;;26.70;50.80;;;;;;5073040;28;20453;-86
2022/12/16 01:58:22;;;;;;;3.00;0.80;;;26.40;49.90;;;;;;5072773;28;20377;-87
2022/12/16 02:00:49;;;;;;;6.57;1.20;;;24.70;52.20;;;;;;5072838;28;20396;-84
2022/12/16 02:03:16;;;;;;;2.72;0.70;;;23.80;52.90;;;;;;5073680;28;20457;-88
2022/12/16 02:05:45;;;;;;;1.67;0.63;;;23.90;53.40;;;;;;5076118;28;20381;-84
2022/12/16 02:08:15;;;;;;;7.47;1.17;;;24.00;52.70;;;;;;5075082;28;20423;-85
2022/12/16 02:10:42;;;;;;;3.63;1.10;;;24.00;53.50;;;;;;5072821;28;20366;-86
2022/12/16 02:13:52;;;;;;;7.43;1.20;;;24.00;52.90;;;;;;5072265;28;20447;-86
2022/12/16 02:16:28;;;;;;;6.13;1.17;;;23.70;53.50;;;;;;5073037;28;20522;-84
2022/12/16 02:19:26;;;;;;;2.85;1.00;;;24.00;54.40;;;;;;5072791;28;20365;-86
2022/12/16 02:22:07;;;;;;;7.10;1.02;;;24.70;53.00;;;;;;5072673;28;20370;-86
2022/12/16 02:25:06;;;;;;;2.60;0.80;;;25.60;50.20;;;;;;5072474;28;20358;-87
2022/12/16 02:28:03;;;;;;;5.03;1.00;;;26.10;50.50;;;;;;5072650;28;20777;-86
2022/12/16 02:31:07;;;;;;;3.95;1.05;;;26.00;49.90;;;;;;5072152;28;20854;-88
2022/12/16 02:33:54;;;;;;;3.45;1.13;;;25.90;51.40;;;;;;5072013;28;20449;-84
2022/12/16 02:36:40;;;;;;;4.85;1.02;;;25.50;50.30;;;;;;5073047;28;20668;-86
2022/12/16 02:39:27;;;;;;;5.55;1.23;;;25.40;51.10;;;;;;5072512;28;20370;-84
2022/12/16 02:42:30;;;;;;;3.63;1.05;;;25.30;51.20;;;;;;5071847;28;20450;-88
2022/12/16 02:45:01;;;;;;;2.33;1.00;;;24.60;52.20;;;;;;5070247;28;20387;-84
2022/12/16 02:47:29;;;;;;;4.25;1.00;;;24.10;53.50;;;;;;5071999;28;20374;-84
2022/12/16 02:49:56;;;;;;;3.67;0.90;;;23.70;54.40;;;;;;5071976;28;20366;-83
2022/12/16 02:52:30;;;;;;;3.78;1.00;;;23.60;55.30;;;;;;5072058;28;20386;-85
2022/12/16 02:55:04;;;;;;;4.07;0.93;;;23.20;54.90;;;;;;5071873;28;20382;-83
2022/12/16 02:57:54;;;;;;;4.35;1.00;;;24.10;55.60;;;;;;5071644;28;20398;-83
2022/12/16 03:00:23;;;;;;;2.60;0.90;;;25.70;53.30;;;;;;5070572;28;20885;-83
2022/12/16 03:03:05;;;;;;;2.28;1.00;;;26.80;50.40;;;;;;5071657;28;20378;-83
2022/12/16 03:05:39;;;;;;;3.30;0.90;;;27.40;48.60;;;;;;5071610;28;20358;-83
2022/12/16 03:08:17;;;;;;;1.63;0.80;;;28.00;50.10;;;;;;5071658;28;20374;-84
2022/12/16 03:10:50;;;;;;;2.88;0.85;;;28.80;48.40;;;;;;5074234;28;20892;-84
2022/12/16 03:13:19;;;;;;;4.60;1.02;;;28.50;47.50;;;;;;5075407;28;20421;-87
2022/12/16 03:15:49;;;;;;;3.50;0.95;;;29.00;46.50;;;;;;5075539;28;20460;-86
2022/12/16 03:18:18;;;;;;;4.10;1.00;;;29.80;45.00;;;;;;5075062;28;20382;-84
2022/12/16 03:20:58;;;;;;;5.88;1.10;;;29.40;45.10;;;;;;5075328;28;20413;-85
2022/12/16 03:23:31;;;;;;;3.08;1.00;;;29.60;46.80;;;;;;5075276;28;20454;-88
2022/12/16 03:26:05;;;;;;;3.33;1.00;;;29.80;45.70;;;;;;5075199;28;20861;-84
2022/12/16 03:28:41;;;;;;;3.70;1.10;;;30.20;45.20;;;;;;5075294;28;20386;-84
2022/12/16 03:31:24;;;;;;;3.60;1.10;;;30.20;46.00;;;;;;5075159;28;20419;-85
2022/12/16 03:34:18;;;;;;;4.35;1.08;;;29.90;45.10;;;;;;5075529;28;20398;-86
2022/12/16 03:36:50;;;;;;;4.00;1.15;;;29.50;45.30;;;;;;5075021;28;20362;-85
2022/12/16 03:39:21;;;;;;;3.83;1.17;;;29.50;46.30;;;;;;5074912;28;20377;-86
2022/12/16 03:41:52;;;;;;;2.95;0.90;;;30.40;45.80;;;;;;5074779;28;20733;-85
2022/12/16 03:44:21;;;;;;;2.80;1.10;;;31.10;44.10;;;;;;5074740;28;20370;-84
2022/12/16 03:46:48;;;;;;;2.03;0.95;;;30.20;43.80;;;;;;5073860;28;20457;-86
2022/12/16 03:49:15;;;;;;;4.73;1.10;;;29.00;44.40;;;;;;5075095;28;20398;-85
2022/12/16 03:51:42;;;;;;;5.55;1.10;;;28.00;46.30;;;;;;5074368;28;20381;-84
2022/12/16 03:54:10;;;;;;;3.70;1.13;;;27.40;48.10;;;;;;5074552;28;20398;-85
2022/12/16 03:56:37;;;;;;;5.63;1.40;;;27.30;47.60;;;;;;5074546;28;20370;-85
2022/12/16 03:59:04;;;;;;;4.70;1.38;;;26.80;48.30;;;;;;5074519;28;20389;-84
2022/12/16 04:01:31;;;;;;;4.65;1.20;;;25.90;50.10;;;;;;5074353;28;20377;-85
2022/12/16 04:03:58;;;;;;;2.42;1.00;;;25.80;50.20;;;;;;5074496;28;20378;-84
2022/12/16 04:06:25;;;;;;;4.90;1.30;;;25.90;50.40;;;;;;5074428;28;20370;-85
2022/12/16 04:08:52;;;;;;;3.50;1.30;;;26.70;49.80;;;;;;5074407;28;20381;-83
2022/12/16 04:25:20;;;;;;;5.60;1.30;;;28.70;47.10;;;;;;5074227;28;20408;-87
2022/12/16 04:27:48;;;;;;;3.70;1.30;;;28.80;46.60;;;;;;5074179;28;20375;-87
2022/12/16 04:30:20;;;;;;;4.80;1.30;;;29.00;47.00;;;;;;5073858;28;20400;-85
